MST,Max TemperatureF,Mean TemperatureF,Min TemperatureF,Max Dew PointF,MeanDew PointF,Min DewpointF,Max Humidity, Mean Humidity, Min Humidity, Max Sea Level PressureIn, Mean Sea Level PressureIn, Min Sea Level PressureIn, Max VisibilityMiles, Mean VisibilityMiles, Min VisibilityMiles, Max Wind SpeedMPH, Mean Wind SpeedMPH, Max Gust SpeedMPH,PrecipitationIn, CloudCover, Events, WindDirDegrees
2012-1-1,62,44,26,19,15,10,61,39,13,30.44,30.36,30.25,10,10,10,10,4,,0.00,0,,218
2012-1-2,64,46,27,21,18,14,69,45,14,30.50,30.39,30.29,10,10,10,9,5,,0.00,0,,180
2012-1-3,61,44,28,27,22,19,69,51,22,30.41,30.34,30.25,10,10,10,9,3,,0.00,0,,196
2012-1-4,66,47,28,23,16,6,67,39,9,30.49,30.38,30.30,10,10,10,10,6,,0.00,0,,189
2012-1-5,64,46,27,20,17,14,61,39,14,30.37,30.24,30.08,10,10,10,9,5,,0.00,0,,208
2012-1-6,64,46,28,21,19,14,67,41,14,30.15,30.03,29.95,10,10,10,10,6,,0.00,0,,201
2012-1-7,59,44,28,23,18,11,69,43,18,30.06,29.95,29.86,10,10,10,17,7,22,0.00,0,,249
2012-1-8,51,40,28,20,12,4,66,41,15,30.19,30.06,29.93,10,10,10,17,12,28,0.00,0,,338
2012-1-9,54,38,21,15,10,4,60,39,14,30.34,30.24,30.15,10,10,10,8,4,,0.00,0,,228
2012-1-10,61,44,27,20,16,13,63,42,17,30.24,30.13,30.02,10,10,10,14,5,,0.00,0,,212
2012-1-11,57,42,28,22,12,2,61,37,13,30.10,30.04,29.96,10,10,10,15,5,22,0.00,0,,254
2012-1-12,51,36,21,10,2,-11,57,33,8,30.18,30.11,30.04,10,10,10,10,4,,0.00,0,,237
2012-1-13,55,37,19,5,0,-7,48,27,8,30.33,30.26,30.18,10,10,10,10,4,,0.00,0,,219
2012-1-14,60,40,21,8,2,-9,48,26,7,30.33,30.23,30.12,10,10,10,10,5,16,0.00,0,,169
2012-1-15,53,43,33,32,20,9,73,44,22,30.17,30.06,29.99,10,10,10,14,7,24,0.00,6,Rain,191
2012-1-16,48,42,35,34,32,28,89,74,48,30.13,29.99,29.91,10,10,6,15,6,24,0.01,5,Rain-Snow,174
2012-1-17,52,38,25,32,25,18,93,66,26,30.27,30.18,30.07,10,10,8,12,3,17,0.00,0,,183
2012-1-18,57,40,23,28,18,9,85,51,15,30.31,30.23,30.15,10,10,10,9,3,,0.00,0,,190
2012-1-19,63,44,26,21,16,6,69,40,11,30.17,30.06,29.94,10,10,10,13,5,,0.00,0,,200
2012-1-20,62,46,30,21,16,10,57,35,17,30.05,29.98,29.91,10,10,10,10,5,,0.00,0,,172
2012-1-21,52,42,32,37,26,19,89,55,31,29.96,29.84,29.65,10,9,2,26,11,41,0.07,4,Rain,193
2012-1-22,44,35,26,22,18,12,72,51,27,30.17,30.06,29.90,10,10,10,12,6,,0.00,2,,273
2012-1-23,48,36,25,32,23,15,100,66,28,30.10,29.96,29.85,10,7,0,16,5,22,0.02,5,Fog-Snow,172
2012-1-24,50,38,27,31,28,22,100,81,39,30.21,30.01,29.86,10,7,0,16,5,20,0.00,3,Fog,315
2012-1-25,60,42,24,27,21,17,81,54,20,30.29,30.22,30.13,10,10,10,9,5,,0.00,0,,250
2012-1-26,64,46,28,27,24,21,75,47,19,30.28,30.11,29.97,10,10,10,15,5,,0.00,0,,214
2012-1-27,57,44,32,31,21,12,75,47,21,30.17,30.06,29.94,10,10,10,8,3,,0.00,0,,349
2012-1-28,59,39,19,13,3,-7,60,30,7,30.38,30.28,30.16,10,10,10,15,5,,0.00,0,,305
2012-1-29,61,40,19,10,3,-2,48,27,8,30.43,30.27,30.14,10,10,10,12,5,,0.00,0,,200
2012-1-30,60,42,24,18,13,7,55,34,15,30.14,30.03,29.94,10,10,10,13,4,,0.00,0,,212
2012-1-31,66,50,34,19,16,12,54,34,14,30.23,30.03,29.93,10,10,10,13,3,17,0.00,2,,238